sensor_id;sensor_type;location;lat;lon;timestamp;P1;durP1;ratioP1;P2;durP2;ratioP2
9972;SDS011;5027;53.560;10.062;2024-02-21T00:00:20;32.17;;;17.67;;
9972;SDS011;5027;53.560;10.062;2024-02-21T00:02:47;28.93;;;16.47;;
9972;SDS011;5027;53.560;10.062;2024-02-21T00:05:13;31.47;;;17.20;;
9972;SDS011;5027;53.560;10.062;2024-02-21T00:07:40;32.80;;;19.43;;
9972;SDS011;5027;53.560;10.062;2024-02-21T00:10:07;31.00;;;17.97;;
9972;SDS011;5027;53.560;10.062;2024-02-21T00:12:35;27.00;;;17.40;;
9972;SDS011;5027;53.560;10.062;2024-02-21T00:15:01;31.63;;;17.07;;
9972;SDS011;5027;53.560;10.062;2024-02-21T00:17:29;30.23;;;17.43;;
9972;SDS011;5027;53.560;10.062;2024-02-21T00:19:56;30.17;;;17.63;;
9972;SDS011;5027;53.560;10.062;2024-02-21T00:22:23;32.17;;;18.00;;
9972;SDS011;5027;53.560;10.062;2024-02-21T00:24:50;33.43;;;18.77;;
9972;SDS011;5027;53.560;10.062;2024-02-21T00:27:16;29.83;;;17.70;;
9972;SDS011;5027;53.560;10.062;2024-02-21T00:29:43;30.77;;;17.27;;
9972;SDS011;5027;53.560;10.062;2024-02-21T00:32:10;20.53;;;12.20;;
9972;SDS011;5027;53.560;10.062;2024-02-21T00:34:37;33.47;;;18.90;;
9972;SDS011;5027;53.560;10.062;2024-02-21T00:37:04;27.40;;;18.33;;
9972;SDS011;5027;53.560;10.062;2024-02-21T00:39:31;36.33;;;17.93;;
9972;SDS011;5027;53.560;10.062;2024-02-21T00:41:57;32.53;;;19.73;;
9972;SDS011;5027;53.560;10.062;2024-02-21T00:44:24;33.40;;;18.67;;
9972;SDS011;5027;53.560;10.062;2024-02-21T00:46:51;30.67;;;19.00;;
9972;SDS011;5027;53.560;10.062;2024-02-21T00:49:19;28.23;;;19.00;;
9972;SDS011;5027;53.560;10.062;2024-02-21T00:51:46;28.80;;;18.53;;
9972;SDS011;5027;53.560;10.062;2024-02-21T00:54:13;29.67;;;20.10;;
9972;SDS011;5027;53.560;10.062;2024-02-21T00:56:40;34.83;;;20.43;;
9972;SDS011;5027;53.560;10.062;2024-02-21T00:59:07;31.80;;;19.30;;
9972;SDS011;5027;53.560;10.062;2024-02-21T01:01:33;33.60;;;20.37;;
9972;SDS011;5027;53.560;10.062;2024-02-21T01:04:00;32.20;;;19.67;;
9972;SDS011;5027;53.560;10.062;2024-02-21T01:06:27;33.07;;;19.83;;
9972;SDS011;5027;53.560;10.062;2024-02-21T01:08:54;32.73;;;20.93;;
9972;SDS011;5027;53.560;10.062;2024-02-21T01:11:21;28.40;;;20.17;;
9972;SDS011;5027;53.560;10.062;2024-02-21T01:13:48;32.57;;;18.17;;
9972;SDS011;5027;53.560;10.062;2024-02-21T01:16:14;33.07;;;19.97;;
9972;SDS011;5027;53.560;10.062;2024-02-21T01:18:41;32.20;;;20.40;;
9972;SDS011;5027;53.560;10.062;2024-02-21T01:21:08;28.63;;;20.10;;
9972;SDS011;5027;53.560;10.062;2024-02-21T01:23:36;29.57;;;20.47;;
9972;SDS011;5027;53.560;10.062;2024-02-21T01:26:03;35.03;;;21.40;;
9972;SDS011;5027;53.560;10.062;2024-02-21T01:28:31;34.93;;;21.63;;
9972;SDS011;5027;53.560;10.062;2024-02-21T01:30:58;28.60;;;22.03;;
9972;SDS011;5027;53.560;10.062;2024-02-21T01:33:25;38.67;;;22.83;;
9972;SDS011;5027;53.560;10.062;2024-02-21T01:35:51;35.03;;;21.27;;
9972;SDS011;5027;53.560;10.062;2024-02-21T01:38:19;32.43;;;20.67;;
9972;SDS011;5027;53.560;10.062;2024-02-21T01:40:46;30.90;;;21.43;;
9972;SDS011;5027;53.560;10.062;2024-02-21T01:43:16;34.73;;;22.00;;
9972;SDS011;5027;53.560;10.062;2024-02-21T01:45:46;32.13;;;23.23;;
9972;SDS011;5027;53.560;10.062;2024-02-21T01:48:24;28.93;;;21.40;;
9972;SDS011;5027;53.560;10.062;2024-02-21T01:50:52;29.97;;;20.57;;
9972;SDS011;5027;53.560;10.062;2024-02-21T01:53:27;29.53;;;22.27;;
9972;SDS011;5027;53.560;10.062;2024-02-21T01:55:56;31.97;;;22.20;;
9972;SDS011;5027;53.560;10.062;2024-02-21T01:58:23;25.13;;;18.83;;
9972;SDS011;5027;53.560;10.062;2024-02-21T02:00:51;31.33;;;22.13;;
9972;SDS011;5027;53.560;10.062;2024-02-21T02:03:18;31.97;;;23.17;;
9972;SDS011;5027;53.560;10.062;2024-02-21T02:05:45;34.93;;;23.63;;
9972;SDS011;5027;53.560;10.062;2024-02-21T02:08:16;30.33;;;23.03;;
9972;SDS011;5027;53.560;10.062;2024-02-21T02:10:45;33.10;;;23.13;;
9972;SDS011;5027;53.560;10.062;2024-02-21T02:13:12;27.97;;;23.47;;
9972;SDS011;5027;53.560;10.062;2024-02-21T02:18:06;29.20;;;23.77;;
9972;SDS011;5027;53.560;10.062;2024-02-21T02:20:33;31.63;;;24.57;;
9972;SDS011;5027;53.560;10.062;2024-02-21T02:22:59;29.23;;;23.83;;
9972;SDS011;5027;53.560;10.062;2024-02-21T02:25:34;30.63;;;24.53;;
9972;SDS011;5027;53.560;10.062;2024-02-21T02:28:03;29.30;;;24.60;;
9972;SDS011;5027;53.560;10.062;2024-02-21T02:30:33;34.93;;;24.93;;
9972;SDS011;5027;53.560;10.062;2024-02-21T02:33:00;32.43;;;25.77;;
9972;SDS011;5027;53.560;10.062;2024-02-21T02:35:30;29.77;;;24.00;;
9972;SDS011;5027;53.560;10.062;2024-02-21T02:37:57;35.27;;;26.30;;
9972;SDS011;5027;53.560;10.062;2024-02-21T02:40:24;33.33;;;26.73;;
9972;SDS011;5027;53.560;10.062;2024-02-21T02:42:51;33.07;;;25.97;;
9972;SDS011;5027;53.560;10.062;2024-02-21T02:45:21;29.90;;;24.17;;
9972;SDS011;5027;53.560;10.062;2024-02-21T02:47:53;29.57;;;24.10;;
9972;SDS011;5027;53.560;10.062;2024-02-21T02:50:20;36.90;;;23.77;;
9972;SDS011;5027;53.560;10.062;2024-02-21T02:52:47;31.53;;;22.87;;
9972;SDS011;5027;53.560;10.062;2024-02-21T02:55:14;18.73;;;14.83;;
9972;SDS011;5027;53.560;10.062;2024-02-21T02:57:41;28.23;;;17.57;;
9972;SDS011;5027;53.560;10.062;2024-02-21T03:00:12;34.37;;;23.97;;
9972;SDS011;5027;53.560;10.062;2024-02-21T03:02:40;32.77;;;23.73;;
9972;SDS011;5027;53.560;10.062;2024-02-21T03:05:12;32.73;;;24.40;;
9972;SDS011;5027;53.560;10.062;2024-02-21T03:07:47;37.57;;;24.27;;
9972;SDS011;5027;53.560;10.062;2024-02-21T03:10:15;38.47;;;24.37;;
9972;SDS011;5027;53.560;10.062;2024-02-21T03:12:43;34.20;;;23.53;;
9972;SDS011;5027;53.560;10.062;2024-02-21T03:15:10;34.50;;;24.03;;
9972;SDS011;5027;53.560;10.062;2024-02-21T03:17:38;39.57;;;24.00;;
9972;SDS011;5027;53.560;10.062;2024-02-21T03:20:05;34.40;;;25.43;;
9972;SDS011;5027;53.560;10.062;2024-02-21T03:22:36;37.70;;;24.23;;
9972;SDS011;5027;53.560;10.062;2024-02-21T03:25:04;35.20;;;23.93;;
9972;SDS011;5027;53.560;10.062;2024-02-21T03:27:31;38.13;;;23.90;;
9972;SDS011;5027;53.560;10.062;2024-02-21T03:29:58;39.40;;;24.57;;
9972;SDS011;5027;53.560;10.062;2024-02-21T03:32:25;35.03;;;23.27;;
9972;SDS011;5027;53.560;10.062;2024-02-21T03:34:52;31.20;;;21.70;;
9972;SDS011;5027;53.560;10.062;2024-02-21T03:37:19;32.17;;;22.97;;
9972;SDS011;5027;53.560;10.062;2024-02-21T03:39:45;30.50;;;23.70;;
9972;SDS011;5027;53.560;10.062;2024-02-21T03:42:13;30.97;;;19.70;;
9972;SDS011;5027;53.560;10.062;2024-02-21T03:44:40;32.23;;;22.10;;
9972;SDS011;5027;53.560;10.062;2024-02-21T03:47:08;31.87;;;22.93;;
9972;SDS011;5027;53.560;10.062;2024-02-21T03:49:37;33.37;;;22.13;;
9972;SDS011;5027;53.560;10.062;2024-02-21T03:52:05;31.47;;;21.67;;
9972;SDS011;5027;53.560;10.062;2024-02-21T03:54:31;30.13;;;21.60;;
9972;SDS011;5027;53.560;10.062;2024-02-21T03:56:58;35.03;;;22.43;;
9972;SDS011;5027;53.560;10.062;2024-02-21T03:59:28;31.03;;;21.77;;
9972;SDS011;5027;53.560;10.062;2024-02-21T04:01:55;36.10;;;22.50;;
9972;SDS011;5027;53.560;10.062;2024-02-21T04:04:22;32.77;;;22.87;;
9972;SDS011;5027;53.560;10.062;2024-02-21T04:06:49;30.77;;;21.90;;
9972;SDS011;5027;53.560;10.062;2024-02-21T04:09:20;30.47;;;20.80;;
9972;SDS011;5027;53.560;10.062;2024-02-21T04:11:48;29.57;;;20.53;;
9972;SDS011;5027;53.560;10.062;2024-02-21T04:14:15;33.00;;;21.97;;
9972;SDS011;5027;53.560;10.062;2024-02-21T04:16:41;30.90;;;21.67;;
9972;SDS011;5027;53.560;10.062;2024-02-21T04:19:08;28.63;;;21.63;;
9972;SDS011;5027;53.560;10.062;2024-02-21T04:21:38;31.93;;;21.80;;
9972;SDS011;5027;53.560;10.062;2024-02-21T04:24:05;30.77;;;22.60;;
9972;SDS011;5027;53.560;10.062;2024-02-21T04:26:33;33.47;;;22.93;;
9972;SDS011;5027;53.560;10.062;2024-02-21T04:29:02;30.27;;;22.17;;
9972;SDS011;5027;53.560;10.062;2024-02-21T04:31:29;32.53;;;21.47;;
9972;SDS011;5027;53.560;10.062;2024-02-21T04:33:58;29.33;;;20.37;;
9972;SDS011;5027;53.560;10.062;2024-02-21T04:36:25;35.67;;;21.07;;
9972;SDS011;5027;53.560;10.062;2024-02-21T04:38:52;30.13;;;22.63;;
9972;SDS011;5027;53.560;10.062;2024-02-21T04:41:18;30.50;;;21.40;;
9972;SDS011;5027;53.560;10.062;2024-02-21T04:43:46;26.80;;;20.50;;
9972;SDS011;5027;53.560;10.062;2024-02-21T04:46:15;24.50;;;19.53;;
9972;SDS011;5027;53.560;10.062;2024-02-21T04:48:42;27.13;;;19.67;;
9972;SDS011;5027;53.560;10.062;2024-02-21T04:51:09;27.03;;;19.80;;
9972;SDS011;5027;53.560;10.062;2024-02-21T04:53:37;25.57;;;18.67;;
9972;SDS011;5027;53.560;10.062;2024-02-21T04:56:04;22.83;;;16.50;;
9972;SDS011;5027;53.560;10.062;2024-02-21T04:58:31;24.93;;;18.00;;
9972;SDS011;5027;53.560;10.062;2024-02-21T05:00:58;22.27;;;17.50;;
9972;SDS011;5027;53.560;10.062;2024-02-21T05:03:25;22.63;;;17.20;;
9972;SDS011;5027;53.560;10.062;2024-02-21T05:05:52;20.13;;;16.87;;
9972;SDS011;5027;53.560;10.062;2024-02-21T05:08:19;14.10;;;12.63;;
9972;SDS011;5027;53.560;10.062;2024-02-21T05:10:45;18.63;;;16.13;;
9972;SDS011;5027;53.560;10.062;2024-02-21T05:13:12;19.00;;;15.87;;
9972;SDS011;5027;53.560;10.062;2024-02-21T05:15:39;20.77;;;15.90;;
9972;SDS011;5027;53.560;10.062;2024-02-21T05:18:06;17.73;;;14.67;;
9972;SDS011;5027;53.560;10.062;2024-02-21T05:20:33;16.97;;;12.77;;
9972;SDS011;5027;53.560;10.062;2024-02-21T05:23:00;19.10;;;14.07;;
9972;SDS011;5027;53.560;10.062;2024-02-21T05:25:27;18.67;;;13.73;;
9972;SDS011;5027;53.560;10.062;2024-02-21T05:27:54;17.10;;;13.10;;
9972;SDS011;5027;53.560;10.062;2024-02-21T05:30:22;16.83;;;13.00;;
9972;SDS011;5027;53.560;10.062;2024-02-21T05:32:48;14.90;;;12.43;;
9972;SDS011;5027;53.560;10.062;2024-02-21T05:35:15;16.03;;;12.03;;
9972;SDS011;5027;53.560;10.062;2024-02-21T05:37:42;14.23;;;11.67;;
9972;SDS011;5027;53.560;10.062;2024-02-21T05:40:09;14.43;;;12.37;;
9972;SDS011;5027;53.560;10.062;2024-02-21T05:42:39;16.07;;;12.37;;
9972;SDS011;5027;53.560;10.062;2024-02-21T05:45:06;14.23;;;11.63;;
9972;SDS011;5027;53.560;10.062;2024-02-21T05:47:33;15.43;;;12.23;;
9972;SDS011;5027;53.560;10.062;2024-02-21T05:49:59;13.23;;;11.87;;
9972;SDS011;5027;53.560;10.062;2024-02-21T05:52:26;13.30;;;10.97;;
9972;SDS011;5027;53.560;10.062;2024-02-21T05:54:53;12.80;;;10.97;;
9972;SDS011;5027;53.560;10.062;2024-02-21T05:57:20;11.90;;;10.33;;
9972;SDS011;5027;53.560;10.062;2024-02-21T05:59:46;12.00;;;9.47;;
9972;SDS011;5027;53.560;10.062;2024-02-21T06:02:13;13.23;;;9.90;;
9972;SDS011;5027;53.560;10.062;2024-02-21T06:04:40;8.60;;;6.83;;
9972;SDS011;5027;53.560;10.062;2024-02-21T06:07:09;10.00;;;9.00;;
9972;SDS011;5027;53.560;10.062;2024-02-21T06:09:35;9.27;;;7.70;;
9972;SDS011;5027;53.560;10.062;2024-02-21T06:12:02;10.50;;;9.40;;
9972;SDS011;5027;53.560;10.062;2024-02-21T06:14:29;9.90;;;9.00;;
9972;SDS011;5027;53.560;10.062;2024-02-21T06:16:56;9.30;;;8.40;;
9972;SDS011;5027;53.560;10.062;2024-02-21T06:19:23;9.40;;;8.33;;
9972;SDS011;5027;53.560;10.062;2024-02-21T06:21:50;8.50;;;7.57;;
9972;SDS011;5027;53.560;10.062;2024-02-21T06:24:16;5.50;;;4.90;;
9972;SDS011;5027;53.560;10.062;2024-02-21T06:26:43;8.40;;;7.60;;
9972;SDS011;5027;53.560;10.062;2024-02-21T06:29:11;9.37;;;8.47;;
9972;SDS011;5027;53.560;10.062;2024-02-21T06:31:40;8.13;;;7.33;;
9972;SDS011;5027;53.560;10.062;2024-02-21T06:34:06;8.70;;;7.90;;
9972;SDS011;5027;53.560;10.062;2024-02-21T06:36:33;8.80;;;7.90;;
9972;SDS011;5027;53.560;10.062;2024-02-21T06:39:00;9.37;;;7.87;;
9972;SDS011;5027;53.560;10.062;2024-02-21T06:41:26;8.93;;;8.13;;
9972;SDS011;5027;53.560;10.062;2024-02-21T06:43:53;7.93;;;7.23;;
9972;SDS011;5027;53.560;10.062;2024-02-21T06:46:24;6.80;;;6.10;;
9972;SDS011;5027;53.560;10.062;2024-02-21T06:48:51;7.07;;;6.37;;
9972;SDS011;5027;53.560;10.062;2024-02-21T06:51:19;7.37;;;6.73;;
9972;SDS011;5027;53.560;10.062;2024-02-21T06:53:45;6.97;;;6.30;;
9972;SDS011;5027;53.560;10.062;2024-02-21T06:56:12;7.07;;;6.40;;
9972;SDS011;5027;53.560;10.062;2024-02-21T06:58:39;6.23;;;5.67;;
9972;SDS011;5027;53.560;10.062;2024-02-21T07:01:06;6.20;;;5.70;;
9972;SDS011;5027;53.560;10.062;2024-02-21T07:03:33;5.43;;;4.23;;
9972;SDS011;5027;53.560;10.062;2024-02-21T07:06:00;6.10;;;5.50;;
9972;SDS011;5027;53.560;10.062;2024-02-21T07:08:27;6.83;;;6.13;;
9972;SDS011;5027;53.560;10.062;2024-02-21T07:10:54;6.60;;;5.97;;
9972;SDS011;5027;53.560;10.062;2024-02-21T07:13:21;5.30;;;4.80;;
9972;SDS011;5027;53.560;10.062;2024-02-21T07:15:49;5.50;;;5.03;;
9972;SDS011;5027;53.560;10.062;2024-02-21T07:18:16;9.27;;;7.67;;
9972;SDS011;5027;53.560;10.062;2024-02-21T07:20:43;7.70;;;7.07;;
9972;SDS011;5027;53.560;10.062;2024-02-21T07:23:09;8.50;;;7.17;;
9972;SDS011;5027;53.560;10.062;2024-02-21T07:25:36;9.10;;;7.10;;
9972;SDS011;5027;53.560;10.062;2024-02-21T07:28:03;8.00;;;7.23;;
9972;SDS011;5027;53.560;10.062;2024-02-21T07:30:30;7.80;;;6.73;;
9972;SDS011;5027;53.560;10.062;2024-02-21T07:32:57;7.43;;;6.83;;
9972;SDS011;5027;53.560;10.062;2024-02-21T07:35:24;7.67;;;6.87;;
9972;SDS011;5027;53.560;10.062;2024-02-21T07:37:51;7.63;;;6.93;;
9972;SDS011;5027;53.560;10.062;2024-02-21T07:40:17;7.07;;;6.47;;
9972;SDS011;5027;53.560;10.062;2024-02-21T07:42:44;7.60;;;6.90;;
9972;SDS011;5027;53.560;10.062;2024-02-21T07:45:16;6.60;;;6.00;;
9972;SDS011;5027;53.560;10.062;2024-02-21T07:47:44;6.97;;;6.27;;
9972;SDS011;5027;53.560;10.062;2024-02-21T07:50:11;6.37;;;5.43;;
9972;SDS011;5027;53.560;10.062;2024-02-21T07:52:38;6.70;;;6.10;;
9972;SDS011;5027;53.560;10.062;2024-02-21T07:55:05;6.23;;;5.73;;
9972;SDS011;5027;53.560;10.062;2024-02-21T07:57:32;5.37;;;4.93;;
9972;SDS011;5027;53.560;10.062;2024-02-21T07:59:59;5.60;;;5.17;;
9972;SDS011;5027;53.560;10.062;2024-02-21T08:02:26;6.07;;;5.57;;
9972;SDS011;5027;53.560;10.062;2024-02-21T08:04:52;6.53;;;5.83;;
9972;SDS011;5027;53.560;10.062;2024-02-21T08:07:19;6.70;;;6.20;;
9972;SDS011;5027;53.560;10.062;2024-02-21T08:09:46;6.23;;;5.73;;
9972;SDS011;5027;53.560;10.062;2024-02-21T08:12:13;4.97;;;4.57;;
9972;SDS011;5027;53.560;10.062;2024-02-21T08:14:39;5.70;;;5.20;;
9972;SDS011;5027;53.560;10.062;2024-02-21T08:17:06;4.07;;;3.73;;
9972;SDS011;5027;53.560;10.062;2024-02-21T08:19:33;5.00;;;4.60;;
9972;SDS011;5027;53.560;10.062;2024-02-21T08:22:00;7.23;;;5.00;;
9972;SDS011;5027;53.560;10.062;2024-02-21T08:24:27;5.70;;;4.53;;
9972;SDS011;5027;53.560;10.062;2024-02-21T08:26:53;4.93;;;4.17;;
9972;SDS011;5027;53.560;10.062;2024-02-21T08:29:20;7.83;;;4.17;;
9972;SDS011;5027;53.560;10.062;2024-02-21T08:31:47;6.33;;;4.40;;
9972;SDS011;5027;53.560;10.062;2024-02-21T08:34:14;7.33;;;4.37;;
9972;SDS011;5027;53.560;10.062;2024-02-21T08:36:41;10.80;;;4.13;;
9972;SDS011;5027;53.560;10.062;2024-02-21T08:39:09;3.03;;;2.17;;
9972;SDS011;5027;53.560;10.062;2024-02-21T08:41:36;12.80;;;4.10;;
9972;SDS011;5027;53.560;10.062;2024-02-21T08:44:25;15.47;;;4.33;;
9972;SDS011;5027;53.560;10.062;2024-02-21T08:46:54;14.50;;;4.33;;
9972;SDS011;5027;53.560;10.062;2024-02-21T08:49:21;9.70;;;4.03;;
9972;SDS011;5027;53.560;10.062;2024-02-21T08:51:49;12.53;;;4.17;;
9972;SDS011;5027;53.560;10.062;2024-02-21T08:54:15;13.33;;;4.60;;
9972;SDS011;5027;53.560;10.062;2024-02-21T08:56:43;16.33;;;4.83;;
9972;SDS011;5027;53.560;10.062;2024-02-21T08:59:10;20.43;;;8.57;;
9972;SDS011;5027;53.560;10.062;2024-02-21T09:01:36;13.37;;;4.50;;
9972;SDS011;5027;53.560;10.062;2024-02-21T09:04:04;16.50;;;4.40;;
9972;SDS011;5027;53.560;10.062;2024-02-21T09:06:31;11.73;;;3.83;;
9972;SDS011;5027;53.560;10.062;2024-02-21T09:09:00;15.77;;;4.67;;
9972;SDS011;5027;53.560;10.062;2024-02-21T09:11:27;11.73;;;4.40;;
9972;SDS011;5027;53.560;10.062;2024-02-21T09:13:54;12.43;;;3.87;;
9972;SDS011;5027;53.560;10.062;2024-02-21T09:16:21;11.03;;;3.83;;
9972;SDS011;5027;53.560;10.062;2024-02-21T09:18:49;11.80;;;4.10;;
9972;SDS011;5027;53.560;10.062;2024-02-21T09:21:16;7.10;;;3.40;;
9972;SDS011;5027;53.560;10.062;2024-02-21T09:23:43;11.70;;;4.10;;
9972;SDS011;5027;53.560;10.062;2024-02-21T09:26:11;9.40;;;3.67;;
9972;SDS011;5027;53.560;10.062;2024-02-21T09:28:42;10.10;;;4.10;;
9972;SDS011;5027;53.560;10.062;2024-02-21T09:31:10;9.37;;;3.63;;
9972;SDS011;5027;53.560;10.062;2024-02-21T09:33:37;11.40;;;3.93;;
9972;SDS011;5027;53.560;10.062;2024-02-21T09:36:05;10.87;;;3.37;;
9972;SDS011;5027;53.560;10.062;2024-02-21T09:38:32;8.67;;;3.37;;
9972;SDS011;5027;53.560;10.062;2024-02-21T09:40:59;8.67;;;3.37;;
9972;SDS011;5027;53.560;10.062;2024-02-21T09:43:33;6.50;;;3.40;;
9972;SDS011;5027;53.560;10.062;2024-02-21T09:46:00;9.70;;;3.57;;
9972;SDS011;5027;53.560;10.062;2024-02-21T09:51:07;9.83;;;3.70;;
9972;SDS011;5027;53.560;10.062;2024-02-21T09:53:37;12.67;;;4.10;;
9972;SDS011;5027;53.560;10.062;2024-02-21T09:56:07;11.03;;;3.67;;
9972;SDS011;5027;53.560;10.062;2024-02-21T09:58:40;5.27;;;2.57;;
9972;SDS011;5027;53.560;10.062;2024-02-21T10:01:07;8.57;;;3.30;;
9972;SDS011;5027;53.560;10.062;2024-02-21T10:03:51;6.63;;;2.83;;
9972;SDS011;5027;53.560;10.062;2024-02-21T10:06:18;11.20;;;3.17;;
9972;SDS011;5027;53.560;10.062;2024-02-21T10:08:51;7.30;;;3.30;;
9972;SDS011;5027;53.560;10.062;2024-02-21T10:11:23;9.70;;;4.23;;
9972;SDS011;5027;53.560;10.062;2024-02-21T10:13:50;6.97;;;4.07;;
9972;SDS011;5027;53.560;10.062;2024-02-21T10:16:28;7.33;;;4.83;;
9972;SDS011;5027;53.560;10.062;2024-02-21T10:18:55;7.83;;;4.73;;
9972;SDS011;5027;53.560;10.062;2024-02-21T10:21:22;7.00;;;4.87;;
9972;SDS011;5027;53.560;10.062;2024-02-21T10:23:49;10.43;;;6.07;;
9972;SDS011;5027;53.560;10.062;2024-02-21T10:26:17;8.27;;;6.80;;
9972;SDS011;5027;53.560;10.062;2024-02-21T10:28:45;8.07;;;6.70;;
9972;SDS011;5027;53.560;10.062;2024-02-21T10:31:27;9.93;;;8.53;;
9972;SDS011;5027;53.560;10.062;2024-02-21T10:33:57;12.10;;;10.80;;
9972;SDS011;5027;53.560;10.062;2024-02-21T10:36:29;13.17;;;11.73;;
9972;SDS011;5027;53.560;10.062;2024-02-21T10:38:56;13.43;;;12.13;;
9972;SDS011;5027;53.560;10.062;2024-02-21T10:41:23;14.77;;;12.80;;
9972;SDS011;5027;53.560;10.062;2024-02-21T10:43:51;15.87;;;13.60;;
9972;SDS011;5027;53.560;10.062;2024-02-21T10:46:21;16.40;;;14.70;;
9972;SDS011;5027;53.560;10.062;2024-02-21T10:49:01;17.60;;;14.10;;
9972;SDS011;5027;53.560;10.062;2024-02-21T10:51:37;18.97;;;14.03;;
9972;SDS011;5027;53.560;10.062;2024-02-21T10:54:20;21.20;;;16.43;;
9972;SDS011;5027;53.560;10.062;2024-02-21T10:57:05;21.83;;;16.17;;
9972;SDS011;5027;53.560;10.062;2024-02-21T10:59:34;21.47;;;16.50;;
9972;SDS011;5027;53.560;10.062;2024-02-21T11:02:03;19.23;;;16.40;;
9972;SDS011;5027;53.560;10.062;2024-02-21T11:04:31;23.63;;;16.23;;
9972;SDS011;5027;53.560;10.062;2024-02-21T11:07:03;19.23;;;15.33;;
9972;SDS011;5027;53.560;10.062;2024-02-21T11:09:36;21.37;;;15.80;;
9972;SDS011;5027;53.560;10.062;2024-02-21T11:12:04;20.77;;;16.00;;
9972;SDS011;5027;53.560;10.062;2024-02-21T11:14:32;24.73;;;15.67;;
9972;SDS011;5027;53.560;10.062;2024-02-21T11:17:01;24.27;;;14.97;;
9972;SDS011;5027;53.560;10.062;2024-02-21T11:19:30;22.30;;;14.80;;
9972;SDS011;5027;53.560;10.062;2024-02-21T11:21:57;16.97;;;14.37;;
9972;SDS011;5027;53.560;10.062;2024-02-21T11:24:32;20.07;;;13.93;;
9972;SDS011;5027;53.560;10.062;2024-02-21T11:27:12;21.00;;;14.50;;
9972;SDS011;5027;53.560;10.062;2024-02-21T11:29:40;19.03;;;13.93;;
9972;SDS011;5027;53.560;10.062;2024-02-21T11:32:17;18.07;;;13.57;;
9972;SDS011;5027;53.560;10.062;2024-02-21T11:34:55;18.27;;;12.77;;
9972;SDS011;5027;53.560;10.062;2024-02-21T11:37:24;17.77;;;13.20;;
9972;SDS011;5027;53.560;10.062;2024-02-21T11:39:54;18.63;;;12.73;;
9972;SDS011;5027;53.560;10.062;2024-02-21T11:42:21;17.63;;;11.23;;
9972;SDS011;5027;53.560;10.062;2024-02-21T11:44:48;19.70;;;13.13;;
9972;SDS011;5027;53.560;10.062;2024-02-21T11:47:15;7.20;;;5.97;;
9972;SDS011;5027;53.560;10.062;2024-02-21T11:49:47;15.03;;;10.87;;
9972;SDS011;5027;53.560;10.062;2024-02-21T11:52:16;15.80;;;10.70;;
9972;SDS011;5027;53.560;10.062;2024-02-21T11:54:45;14.47;;;11.13;;
9972;SDS011;5027;53.560;10.062;2024-02-21T11:57:13;18.30;;;11.20;;
9972;SDS011;5027;53.560;10.062;2024-02-21T11:59:40;14.73;;;10.57;;
9972;SDS011;5027;53.560;10.062;2024-02-21T12:02:07;14.70;;;11.07;;
9972;SDS011;5027;53.560;10.062;2024-02-21T12:04:35;15.40;;;10.47;;
9972;SDS011;5027;53.560;10.062;2024-02-21T12:07:02;15.47;;;10.60;;
9972;SDS011;5027;53.560;10.062;2024-02-21T12:09:30;15.90;;;10.77;;
9972;SDS011;5027;53.560;10.062;2024-02-21T12:12:01;16.97;;;11.00;;
9972;SDS011;5027;53.560;10.062;2024-02-21T12:14:30;14.27;;;9.73;;
9972;SDS011;5027;53.560;10.062;2024-02-21T12:17:01;13.90;;;10.67;;
9972;SDS011;5027;53.560;10.062;2024-02-21T12:19:30;6.37;;;3.80;;
9972;SDS011;5027;53.560;10.062;2024-02-21T12:21:59;13.60;;;10.00;;
9972;SDS011;5027;53.560;10.062;2024-02-21T12:24:27;13.57;;;11.20;;
9972;SDS011;5027;53.560;10.062;2024-02-21T12:26:55;13.70;;;10.80;;
9972;SDS011;5027;53.560;10.062;2024-02-21T12:29:26;17.33;;;11.00;;
9972;SDS011;5027;53.560;10.062;2024-02-21T12:31:53;15.10;;;11.27;;
9972;SDS011;5027;53.560;10.062;2024-02-21T12:34:23;17.83;;;11.50;;
9972;SDS011;5027;53.560;10.062;2024-02-21T12:37:04;12.33;;;10.33;;
9972;SDS011;5027;53.560;10.062;2024-02-21T12:39:31;17.73;;;11.77;;
9972;SDS011;5027;53.560;10.062;2024-02-21T12:41:58;17.30;;;12.27;;
9972;SDS011;5027;53.560;10.062;2024-02-21T12:44:26;20.60;;;11.77;;
9972;SDS011;5027;53.560;10.062;2024-02-21T12:46:53;15.60;;;11.77;;
9972;SDS011;5027;53.560;10.062;2024-02-21T12:49:21;18.33;;;12.63;;
9972;SDS011;5027;53.560;10.062;2024-02-21T12:51:48;11.93;;;9.50;;
9972;SDS011;5027;53.560;10.062;2024-02-21T12:54:15;13.33;;;8.77;;
9972;SDS011;5027;53.560;10.062;2024-02-21T12:56:42;14.63;;;11.30;;
9972;SDS011;5027;53.560;10.062;2024-02-21T12:59:09;15.83;;;11.77;;
9972;SDS011;5027;53.560;10.062;2024-02-21T13:01:36;8.07;;;2.53;;
9972;SDS011;5027;53.560;10.062;2024-02-21T13:04:04;19.47;;;11.63;;
9972;SDS011;5027;53.560;10.062;2024-02-21T13:06:32;17.07;;;10.83;;
9972;SDS011;5027;53.560;10.062;2024-02-21T13:08:59;16.30;;;11.57;;
9972;SDS011;5027;53.560;10.062;2024-02-21T13:11:29;19.33;;;11.87;;
9972;SDS011;5027;53.560;10.062;2024-02-21T13:13:58;18.30;;;11.93;;
9972;SDS011;5027;53.560;10.062;2024-02-21T13:16:25;20.07;;;12.17;;
9972;SDS011;5027;53.560;10.062;2024-02-21T13:18:53;16.83;;;11.73;;
9972;SDS011;5027;53.560;10.062;2024-02-21T13:21:20;18.77;;;12.00;;
9972;SDS011;5027;53.560;10.062;2024-02-21T13:23:47;6.87;;;3.67;;
9972;SDS011;5027;53.560;10.062;2024-02-21T13:26:14;16.00;;;11.37;;
9972;SDS011;5027;53.560;10.062;2024-02-21T13:28:41;18.90;;;11.97;;
9972;SDS011;5027;53.560;10.062;2024-02-21T13:31:11;15.27;;;10.67;;
9972;SDS011;5027;53.560;10.062;2024-02-21T13:33:40;16.57;;;11.07;;
9972;SDS011;5027;53.560;10.062;2024-02-21T13:36:08;16.37;;;10.53;;
9972;SDS011;5027;53.560;10.062;2024-02-21T13:38:34;17.10;;;10.50;;
9972;SDS011;5027;53.560;10.062;2024-02-21T13:41:01;15.90;;;10.57;;
9972;SDS011;5027;53.560;10.062;2024-02-21T13:43:28;17.53;;;11.03;;
9972;SDS011;5027;53.560;10.062;2024-02-21T13:45:57;16.43;;;10.97;;
9972;SDS011;5027;53.560;10.062;2024-02-21T13:48:25;15.73;;;9.77;;
9972;SDS011;5027;53.560;10.062;2024-02-21T13:50:53;14.07;;;10.17;;
9972;SDS011;5027;53.560;10.062;2024-02-21T13:53:20;18.90;;;10.80;;
9972;SDS011;5027;53.560;10.062;2024-02-21T13:55:49;15.50;;;11.03;;
9972;SDS011;5027;53.560;10.062;2024-02-21T13:58:16;16.80;;;10.87;;
9972;SDS011;5027;53.560;10.062;2024-02-21T14:00:43;16.93;;;9.90;;
9972;SDS011;5027;53.560;10.062;2024-02-21T14:03:10;15.33;;;9.77;;
9972;SDS011;5027;53.560;10.062;2024-02-21T14:05:37;17.37;;;10.57;;
9972;SDS011;5027;53.560;10.062;2024-02-21T14:08:08;17.93;;;9.77;;
9972;SDS011;5027;53.560;10.062;2024-02-21T14:10:35;19.60;;;10.37;;
9972;SDS011;5027;53.560;10.062;2024-02-21T14:13:03;14.07;;;9.87;;
9972;SDS011;5027;53.560;10.062;2024-02-21T14:15:30;15.63;;;9.70;;
9972;SDS011;5027;53.560;10.062;2024-02-21T14:17:57;15.97;;;10.20;;
9972;SDS011;5027;53.560;10.062;2024-02-21T14:20:24;12.70;;;9.63;;
9972;SDS011;5027;53.560;10.062;2024-02-21T14:22:51;15.40;;;9.83;;
9972;SDS011;5027;53.560;10.062;2024-02-21T14:25:18;16.90;;;10.17;;
9972;SDS011;5027;53.560;10.062;2024-02-21T14:27:45;14.13;;;8.93;;
9972;SDS011;5027;53.560;10.062;2024-02-21T14:30:11;11.00;;;8.23;;
9972;SDS011;5027;53.560;10.062;2024-02-21T14:32:40;13.27;;;8.60;;
9972;SDS011;5027;53.560;10.062;2024-02-21T14:35:09;16.97;;;8.80;;
9972;SDS011;5027;53.560;10.062;2024-02-21T14:37:36;16.33;;;8.87;;
9972;SDS011;5027;53.560;10.062;2024-02-21T14:40:03;12.07;;;9.03;;
9972;SDS011;5027;53.560;10.062;2024-02-21T14:42:30;13.63;;;8.90;;
9972;SDS011;5027;53.560;10.062;2024-02-21T14:44:57;16.77;;;10.17;;
9972;SDS011;5027;53.560;10.062;2024-02-21T14:47:31;13.10;;;9.10;;
9972;SDS011;5027;53.560;10.062;2024-02-21T14:49:58;16.60;;;10.03;;
9972;SDS011;5027;53.560;10.062;2024-02-21T14:52:25;16.70;;;9.20;;